Time;durP1;ratioP1;P1;durP2;ratioP2;P2;SDS_P1;SDS_P2;PMS_P1;PMS_P2;Temp;Humidity;BMP_temperature;BMP_pressure;BME280_temperature;BME280_humidity;BME280_pressure;Samples;Min_cycle;Max_cycle;Signal;HPM_P1;HPM_P2
2022/01/06 00:01:52;;;;;;;6.97;3.70;;;;;;;19.28;56.29;96477.63;10369483;28;20288;-22
2022/01/06 00:06:53;;;;;;;6.03;3.97;;;;;;;19.21;56.09;96470.91;10369362;28;20295;-22
2022/01/06 00:11:53;;;;;;;8.13;3.60;;;;;;;19.29;56.23;96486.94;10379755;28;20053;-23
2022/01/06 00:27:31;;;;;;;6.57;3.95;;;;;;;19.21;56.62;96501.38;10367656;28;20068;-23
2022/01/06 00:32:32;;;;;;;5.17;3.80;;;;;;;19.24;56.32;96506.44;10368300;28;20040;-23
2022/01/06 00:37:32;;;;;;;4.97;3.70;;;;;;;19.24;56.28;96506.44;10367840;28;20057;-23
2022/01/06 00:42:32;;;;;;;4.83;3.47;;;;;;;19.23;56.32;96512.34;10366821;28;20042;-22
2022/01/06 00:47:33;;;;;;;6.22;3.50;;;;;;;19.21;56.39;96514.06;10367065;28;20041;-23
2022/01/06 00:52:34;;;;;;;5.17;3.57;;;;;;;19.26;56.18;96514.88;10366021;28;20037;-22
2022/01/06 00:57:34;;;;;;;9.95;3.75;;;;;;;19.26;56.13;96508.09;10367549;28;20121;-22
2022/01/06 01:02:34;;;;;;;5.43;3.07;;;;;;;19.24;56.26;96511.53;10366956;28;20065;-22
2022/01/06 01:07:35;;;;;;;6.50;3.35;;;;;;;19.20;56.17;96508.16;10367844;28;20041;-26
2022/01/06 01:12:35;;;;;;;3.83;3.10;;;;;;;19.19;56.32;96501.38;10374669;28;20396;-22
2022/01/06 01:17:38;;;;;;;4.93;3.10;;;;;;;19.20;56.27;96497.16;10404252;28;20040;-23
2022/01/06 01:22:38;;;;;;;4.95;3.50;;;;;;;19.21;56.39;96509.84;10371129;28;20303;-22
2022/01/06 01:27:42;;;;;;;5.72;4.03;;;;;;;19.19;56.47;96510.69;10367605;28;20037;-22
2022/01/06 01:32:50;;;;;;;5.88;3.42;;;;;;;19.17;56.39;96507.31;10367513;28;20400;-22
2022/01/06 01:37:51;;;;;;;4.25;2.83;;;;;;;19.16;56.39;96516.59;10367443;28;20037;-22
2022/01/06 01:42:51;;;;;;;5.80;3.40;;;;;;;19.23;56.24;96533.50;10366770;28;20042;-21
2022/01/06 01:47:53;;;;;;;5.45;3.28;;;;;;;19.23;56.11;96530.13;10369837;28;20049;-22
2022/01/06 01:52:57;;;;;;;5.85;2.90;;;;;;;19.22;56.22;96536.03;10374312;28;20049;-21
2022/01/06 01:57:57;;;;;;;5.10;3.28;;;;;;;19.20;56.37;96542.84;10374629;28;20065;-21
2022/01/06 02:02:57;;;;;;;5.63;3.65;;;;;;;19.19;56.25;96536.06;10374163;28;20381;-22
2022/01/06 02:07:59;;;;;;;5.30;3.25;;;;;;;19.16;56.39;96543.69;10373711;28;20510;-22
2022/01/06 02:13:01;;;;;;;4.20;3.25;;;;;;;19.12;56.51;96545.38;10387791;28;20400;-23
2022/01/06 02:18:02;;;;;;;4.28;3.55;;;;;;;19.18;56.29;96549.59;10413293;28;20124;-25
2022/01/06 02:23:02;;;;;;;4.82;2.53;;;;;;;19.17;56.27;96552.97;10374214;28;20412;-22
2022/01/06 02:28:04;;;;;;;4.23;3.10;;;;;;;19.17;56.22;96552.97;10373606;28;20084;-22
2022/01/06 02:33:06;;;;;;;4.07;2.70;;;;;;;19.23;56.08;96547.88;10372684;28;20033;-23
2022/01/06 02:38:09;;;;;;;5.07;3.10;;;;;;;19.24;55.87;96552.97;10372619;28;20510;-22
2022/01/06 02:43:09;;;;;;;3.38;2.67;;;;;;;19.17;56.14;96555.53;10371781;28;20030;-22
2022/01/06 02:48:09;;;;;;;4.70;2.97;;;;;;;19.17;56.14;96558.06;10371944;28;20064;-24
2022/01/06 02:53:11;;;;;;;7.57;4.27;;;;;;;19.17;56.24;96573.28;10372730;28;20030;-23
2022/01/06 02:58:12;;;;;;;4.57;2.78;;;;;;;19.15;56.32;96565.66;10371212;28;20292;-22
2022/01/06 03:03:12;;;;;;;4.60;2.80;;;;;;;19.16;56.19;96571.59;10371439;28;20177;-22
2022/01/06 03:08:13;;;;;;;5.22;3.47;;;;;;;19.16;56.19;96569.06;10371421;28;20052;-22
2022/01/06 03:13:13;;;;;;;6.18;3.20;;;;;;;19.16;56.13;96574.13;10382041;28;20033;-23
2022/01/06 03:18:13;;;;;;;6.83;2.97;;;;;;;19.17;56.07;96575.81;10411283;28;20033;-23
2022/01/06 03:23:14;;;;;;;4.80;2.90;;;;;;;19.22;55.91;96576.66;10370611;28;20080;-25
2022/01/06 03:28:14;;;;;;;6.23;2.90;;;;;;;19.16;55.77;96572.41;10370601;28;20050;-22
2022/01/06 03:33:15;;;;;;;5.33;2.80;;;;;;;19.20;55.70;96583.44;10370912;28;20061;-23
2022/01/06 03:38:15;;;;;;;6.37;2.90;;;;;;;19.15;56.06;96578.34;10370908;28;20765;-22
2022/01/06 03:43:15;;;;;;;4.93;2.60;;;;;;;19.14;56.10;96588.50;10370081;28;20104;-22
2022/01/06 03:48:16;;;;;;;3.73;2.50;;;;;;;19.14;56.08;96591.91;10370626;28;20026;-23
2022/01/06 03:53:16;;;;;;;3.13;2.80;;;;;;;19.16;56.15;96596.97;10369877;28;20511;-21
2022/01/06 03:58:17;;;;;;;3.63;2.73;;;;;;;19.13;56.07;96592.75;10369114;28;20811;-22
2022/01/06 04:03:17;;;;;;;3.60;2.43;;;;;;;19.12;56.27;96613.06;10369307;28;20296;-22
2022/01/06 04:08:17;;;;;;;8.10;2.27;;;;;;;19.14;56.12;96606.28;10368236;28;20045;-22
2022/01/06 04:13:18;;;;;;;6.37;2.60;;;;;;;19.19;56.10;96602.88;10381153;28;20625;-22
2022/01/06 04:18:18;;;;;;;4.73;2.77;;;;;;;19.20;55.85;96608.81;10408819;28;20553;-22
2022/01/06 04:23:18;;;;;;;4.17;2.63;;;;;;;19.18;55.96;96620.66;10369183;28;20248;-22
2022/01/06 04:28:19;;;;;;;2.70;2.37;;;;;;;19.15;56.04;96615.56;10369514;28;20044;-22
2022/01/06 04:33:19;;;;;;;3.75;2.30;;;;;;;19.14;56.16;96621.50;10368619;28;20018;-21
2022/01/06 04:38:21;;;;;;;5.45;2.42;;;;;;;19.15;56.06;96625.72;10368389;28;20041;-22
2022/01/06 04:43:23;;;;;;;8.50;2.80;;;;;;;19.17;55.69;96629.13;10368335;28;20034;-23
2022/01/06 04:48:23;;;;;;;3.55;2.30;;;;;;;19.18;55.86;96630.81;10367774;28;20164;-21
2022/01/06 04:53:23;;;;;;;3.63;2.70;;;;;;;19.18;55.83;96646.03;10368272;28;20544;-21
2022/01/06 04:58:24;;;;;;;2.50;2.10;;;;;;;19.20;55.84;96644.34;10368251;28;20432;-22
2022/01/06 05:03:24;;;;;;;5.43;2.80;;;;;;;19.24;55.69;96656.19;10367538;28;20061;-22
2022/01/06 05:08:26;;;;;;;3.93;2.50;;;;;;;19.27;55.68;96658.72;10367634;28;20397;-22
2022/01/06 05:13:26;;;;;;;4.25;2.28;;;;;;;19.25;55.63;96657.88;10378458;28;20071;-22
2022/01/06 05:18:27;;;;;;;4.33;1.87;;;;;;;19.24;55.78;96663.81;10405358;28;20307;-23
2022/01/06 05:23:27;;;;;;;2.90;2.27;;;;;;;19.22;55.40;96663.81;10370373;28;20393;-22
2022/01/06 05:28:28;;;;;;;3.25;2.15;;;;;;;19.23;55.94;96674.78;10375625;28;20488;-22
2022/01/06 05:33:29;;;;;;;4.13;2.50;;;;;;;19.21;56.01;96676.50;10375206;28;21403;-23
2022/01/06 05:38:29;;;;;;;2.67;1.90;;;;;;;19.20;56.21;96674.81;10374969;28;20828;-22
2022/01/06 05:43:30;;;;;;;3.83;2.73;;;;;;;19.23;56.12;96684.94;10374956;28;20038;-22
2022/01/06 05:48:30;;;;;;;3.87;2.27;;;;;;;19.23;56.06;96684.94;10375533;28;20040;-22
2022/01/06 05:53:30;;;;;;;5.47;2.77;;;;;;;19.26;56.06;96669.72;10374694;28;20050;-22
2022/01/06 05:58:31;;;;;;;3.73;2.03;;;;;;;19.28;55.93;96673.09;10374514;28;20092;-22
2022/01/06 06:03:31;;;;;;;3.10;2.25;;;;;;;19.27;56.11;96681.56;10373887;28;20308;-22
2022/01/06 06:08:31;;;;;;;3.53;2.20;;;;;;;19.24;56.06;96691.72;10374073;28;20120;-22
2022/01/06 06:13:32;;;;;;;3.73;1.93;;;;;;;19.24;56.36;96696.81;10392248;28;20034;-23
2022/01/06 06:18:32;;;;;;;3.08;1.92;;;;;;;19.25;56.20;96703.56;10410642;28;20033;-22
2022/01/06 06:23:33;;;;;;;2.97;1.90;;;;;;;19.24;56.25;96706.97;10372748;28;20488;-21
2022/01/06 06:28:33;;;;;;;3.83;2.40;;;;;;;19.17;56.38;96701.00;10372600;28;20072;-21
2022/01/06 06:33:34;;;;;;;3.37;2.20;;;;;;;19.20;56.44;96701.03;10371072;28;20036;-22
2022/01/06 06:38:34;;;;;;;5.13;2.17;;;;;;;19.15;56.32;96694.22;10372449;28;20042;-22
2022/01/06 06:43:34;;;;;;;3.00;1.87;;;;;;;19.22;56.31;96708.63;10372912;28;20038;-22
2022/01/06 06:48:35;;;;;;;4.30;1.87;;;;;;;19.22;56.23;96708.63;10372936;28;20052;-22
2022/01/06 06:53:35;;;;;;;3.63;1.93;;;;;;;19.23;56.14;96705.25;10371433;28;20065;-21
2022/01/06 06:58:36;;;;;;;4.97;2.10;;;;;;;19.24;56.17;96719.66;10371702;28;20702;-24
2022/01/06 07:03:36;;;;;;;4.13;2.42;;;;;;;19.23;56.15;96715.41;10373188;28;20052;-23
2022/01/06 07:08:36;;;;;;;4.15;2.40;;;;;;;19.19;56.30;96717.09;10407251;28;20030;-23
2022/01/06 07:13:37;;;;;;;4.30;1.80;;;;;;;19.22;56.12;96713.72;10391659;28;20029;-21
2022/01/06 07:18:37;;;;;;;3.27;1.97;;;;;;;19.21;56.23;96717.97;10408252;28;20025;-22
2022/01/06 07:23:37;;;;;;;6.03;2.03;;;;;;;19.22;56.42;96726.41;10370220;28;20034;-22
2022/01/06 07:28:38;;;;;;;4.03;1.87;;;;;;;19.23;55.53;96725.53;10410860;28;20037;-18
2022/01/06 07:33:38;;;;;;;5.03;1.83;;;;;;;19.29;54.93;96736.56;10393600;28;20288;-23
2022/01/06 07:38:39;;;;;;;4.33;2.10;;;;;;;19.26;55.62;96740.78;10370377;28;20285;-22
2022/01/06 07:43:39;;;;;;;5.30;1.63;;;;;;;19.24;55.98;96752.66;10384435;28;20500;-22
2022/01/06 07:54:09;;;;;;;7.47;2.30;;;;;;;19.16;56.25;96780.53;10369292;28;20046;-22
2022/01/06 07:59:11;;;;;;;4.63;1.77;;;;;;;19.18;53.20;96778.81;10369954;28;20087;-22
2022/01/06 08:04:12;;;;;;;3.00;1.88;;;;;;;19.10;51.88;96789.84;10402580;28;20061;-23
2022/01/06 08:09:12;;;;;;;4.43;2.17;;;;;;;19.10;51.51;96795.75;10367063;28;20030;-23
2022/01/06 08:14:12;;;;;;;6.72;1.92;;;;;;;19.06;51.31;96793.22;10385347;28;20048;-23
2022/01/06 08:19:13;;;;;;;10.67;2.37;;;;;;;19.17;51.92;96794.06;10400037;28;20033;-22
2022/01/06 08:24:13;;;;;;;4.37;2.60;;;;;;;19.27;52.75;96798.31;10381682;28;20084;-23
2022/01/06 08:29:13;;;;;;;9.43;2.47;;;;;;;19.25;53.61;96803.38;10389381;28;20040;-22
2022/01/06 08:34:14;;;;;;;7.97;2.60;;;;;;;19.28;53.99;96800.00;10387375;28;20769;-22
2022/01/06 08:39:14;;;;;;;7.90;2.97;;;;;;;19.32;52.56;96797.47;10381295;28;20452;-23
2022/01/06 08:44:15;;;;;;;12.77;2.50;;;;;;;19.33;54.28;96798.31;10368739;28;20049;-22
2022/01/06 08:49:15;;;;;;;10.15;2.85;;;;;;;19.26;54.48;96802.53;10380218;28;20025;-21
2022/01/06 08:54:16;;;;;;;7.45;2.90;;;;;;;18.34;48.80;96798.28;10401486;28;20095;-23
2022/01/06 08:59:16;;;;;;;7.67;2.63;;;;;;;18.76;51.54;96801.69;10391420;28;20117;-22
2022/01/06 09:04:20;;;;;;;10.20;2.72;;;;;;;19.00;52.70;96816.09;10367496;28;20343;-22
2022/01/06 09:09:21;;;;;;;7.53;2.60;;;;;;;19.06;53.36;96818.59;10368063;28;20033;-21
2022/01/06 09:14:22;;;;;;;11.10;2.72;;;;;;;19.10;53.76;96817.78;10386677;28;20068;-21
2022/01/06 09:19:23;;;;;;;11.93;3.38;;;;;;;19.14;53.87;96814.38;10398236;28;20077;-22
2022/01/06 09:24:23;;;;;;;5.90;2.80;;;;;;;19.09;54.41;96818.63;10367645;28;20069;-21
2022/01/06 09:29:24;;;;;;;5.17;2.40;;;;;;;19.11;54.38;96827.06;10367105;28;20042;-22
2022/01/06 09:34:24;;;;;;;5.03;2.80;;;;;;;19.15;54.48;96823.66;10367923;28;20307;-22
2022/01/06 09:39:24;;;;;;;5.27;2.90;;;;;;;19.12;54.63;96823.69;10366909;28;20786;-22
2022/01/06 09:44:25;;;;;;;4.13;2.43;;;;;;;19.12;54.81;96833.84;10366813;28;20305;-22
2022/01/06 09:49:26;;;;;;;5.35;2.70;;;;;;;19.08;54.89;96837.22;10367431;28;20045;-21
2022/01/06 09:54:26;;;;;;;7.07;2.67;;;;;;;19.09;55.09;96844.81;10367106;28;20041;-22
2022/01/06 09:59:27;;;;;;;4.43;2.63;;;;;;;19.03;55.10;96837.25;10367204;28;20045;-22
2022/01/06 10:04:28;;;;;;;3.42;2.45;;;;;;;19.11;55.01;96847.38;10367227;28;20653;-22
2022/01/06 10:09:30;;;;;;;5.65;2.95;;;;;;;19.15;54.87;96856.66;10368807;28;20048;-22
2022/01/06 10:14:39;;;;;;;4.35;2.72;;;;;;;19.16;55.11;96855.84;10404798;28;20041;-22
2022/01/06 10:19:42;;;;;;;4.90;2.92;;;;;;;19.13;55.12;96861.75;10402098;28;20463;-22
2022/01/06 10:24:44;;;;;;;5.72;3.17;;;;;;;19.14;55.10;96863.44;10373749;28;20240;-21
2022/01/06 10:29:52;;;;;;;5.65;2.90;;;;;;;19.14;55.12;96860.91;10372672;28;20065;-23
2022/01/06 10:34:55;;;;;;;4.80;3.40;;;;;;;19.14;55.09;96857.50;10373544;28;20034;-22
2022/01/06 10:40:00;;;;;;;6.38;3.58;;;;;;;19.10;55.23;96865.97;10373533;28;20239;-22
2022/01/06 10:45:11;;;;;;;6.10;3.50;;;;;;;19.13;55.13;96871.06;10373864;28;20030;-21
2022/01/06 10:50:19;;;;;;;5.57;3.10;;;;;;;19.05;55.11;96852.44;10372494;28;20083;-22
2022/01/06 10:55:26;;;;;;;5.03;3.53;;;;;;;19.17;55.07;96875.28;10372245;28;20528;-22
2022/01/06 11:00:30;;;;;;;6.10;3.08;;;;;;;19.17;55.07;96875.28;10371443;28;20044;-21
2022/01/06 11:05:30;;;;;;;4.68;3.03;;;;;;;19.16;55.19;96871.06;10371292;28;20114;-22
2022/01/06 11:10:35;;;;;;;7.03;3.83;;;;;;;19.14;55.20;96880.34;10372001;28;20030;-22
2022/01/06 11:15:35;;;;;;;5.35;3.47;;;;;;;19.13;55.20;96888.81;10401492;28;20047;-22
2022/01/06 11:20:37;;;;;;;4.32;3.53;;;;;;;19.13;55.32;96874.44;10391610;28;20492;-23
2022/01/06 11:25:39;;;;;;;4.15;3.50;;;;;;;19.13;55.30;96874.44;10370982;28;20044;-23
2022/01/06 11:30:46;;;;;;;5.53;3.60;;;;;;;19.14;55.28;96870.19;10370583;28;20480;-24
2022/01/06 11:35:52;;;;;;;6.68;3.53;;;;;;;19.13;55.07;96871.91;10370282;28;20321;-22
2022/01/06 11:41:11;;;;;;;6.23;4.57;;;;;;;19.17;55.25;96872.75;10369885;28;20044;-22
2022/01/06 11:46:12;;;;;;;4.72;4.22;;;;;;;19.10;55.06;96853.28;10370101;28;20762;-22
2022/01/06 11:51:25;;;;;;;4.85;3.75;;;;;;;19.16;55.11;96859.22;10369889;28;20034;-21
2022/01/06 11:56:26;;;;;;;4.75;4.18;;;;;;;19.12;55.17;96854.13;10369993;28;20045;-23
2022/01/06 12:01:26;;;;;;;4.05;3.55;;;;;;;19.14;55.34;96860.03;10369666;28;20347;-22
2022/01/06 12:06:32;;;;;;;4.82;4.13;;;;;;;19.13;55.37;96871.06;10370370;28;20044;-22
2022/01/06 12:11:33;;;;;;;4.60;3.70;;;;;;;19.14;55.20;96854.97;10377417;28;20032;-22
2022/01/06 12:16:36;;;;;;;5.40;4.10;;;;;;;19.14;55.24;96854.97;10408237;28;20044;-23
2022/01/06 12:21:36;;;;;;;5.40;4.30;;;;;;;19.17;55.15;96858.34;10381692;28;20037;-22
2022/01/06 12:26:39;;;;;;;4.70;3.97;;;;;;;19.15;55.24;96849.03;10368749;28;20034;-21
2022/01/06 12:31:41;;;;;;;5.50;3.72;;;;;;;19.14;55.34;96847.34;10367161;28;20436;-21
2022/01/06 12:36:45;;;;;;;5.50;3.95;;;;;;;19.17;55.32;96852.44;10367920;28;20080;-21
2022/01/06 12:41:48;;;;;;;5.30;3.92;;;;;;;19.15;55.30;96856.66;10368299;28;20061;-23
2022/01/06 12:46:49;;;;;;;6.07;4.45;;;;;;;19.13;55.33;96858.38;10368477;28;20120;-23
2022/01/06 12:51:50;;;;;;;5.80;3.88;;;;;;;19.09;55.62;96856.69;10368815;28;20034;-23
2022/01/06 12:56:56;;;;;;;4.07;3.67;;;;;;;19.09;55.53;96860.06;10368907;28;20280;-22
2022/01/06 13:01:59;;;;;;;4.13;3.73;;;;;;;19.14;55.44;96862.59;10367868;28;20069;-22
2022/01/06 13:07:04;;;;;;;5.32;4.30;;;;;;;19.01;55.45;96854.13;10368406;28;20030;-22
2022/01/06 13:12:08;;;;;;;4.53;4.00;;;;;;;19.11;55.56;96862.59;10370165;28;20030;-22
2022/01/06 13:17:14;;;;;;;5.72;4.70;;;;;;;19.10;55.59;96866.81;10400636;28;20034;-21
2022/01/06 13:22:17;;;;;;;;;;;;;;;19.14;55.35;96863.44;10375205;28;20038;-21
2022/01/06 13:27:17;;;;;;;3.55;3.25;;;;;;;19.15;55.22;96864.28;10367483;28;19920;-22
2022/01/06 13:32:27;;;;;;;5.43;4.05;;;;;;;19.14;55.20;96872.75;10367719;28;20457;-21
2022/01/06 13:37:29;;;;;;;5.45;3.50;;;;;;;19.11;55.34;96878.69;10367401;28;20037;-22
2022/01/06 13:42:37;;;;;;;5.68;4.30;;;;;;;19.12;55.24;96884.59;10367184;28;20064;-22
2022/01/06 13:47:50;;;;;;;5.18;3.47;;;;;;;19.10;55.24;96884.56;10374940;28;20619;-21
2022/01/06 13:52:50;;;;;;;4.82;4.22;;;;;;;19.10;55.41;96891.38;10374912;28;20057;-22
2022/01/06 13:57:50;;;;;;;4.53;4.10;;;;;;;19.09;55.28;96894.75;10374791;28;20511;-23
2022/01/06 14:02:52;;;;;;;4.18;3.60;;;;;;;19.12;55.34;96894.75;10374058;28;20038;-23
2022/01/06 14:07:52;;;;;;;4.68;3.28;;;;;;;19.12;55.29;96904.88;10374287;28;20435;-23
2022/01/06 14:12:54;;;;;;;3.50;3.00;;;;;;;19.11;55.09;96909.13;10391518;28;20048;-21
2022/01/06 14:17:54;;;;;;;4.45;3.95;;;;;;;19.14;55.11;96908.28;10412984;28;20120;-22
2022/01/06 14:22:54;;;;;;;4.13;3.73;;;;;;;19.12;55.17;96904.88;10375213;28;20087;-22
2022/01/06 14:27:55;;;;;;;5.37;3.73;;;;;;;19.08;55.23;96898.13;10372972;28;20507;-22
2022/01/06 14:32:58;;;;;;;4.33;3.93;;;;;;;19.05;55.51;96904.06;10373875;28;20124;-22
2022/01/06 14:37:59;;;;;;;3.60;3.30;;;;;;;19.10;55.28;96907.41;10372844;28;20466;-22
2022/01/06 14:43:00;;;;;;;4.38;3.97;;;;;;;19.08;55.29;96910.81;10373145;28;20116;-23
2022/01/06 14:48:01;;;;;;;4.07;3.67;;;;;;;19.11;55.29;96909.13;10372904;28;20488;-22
2022/01/06 14:53:01;;;;;;;4.78;4.38;;;;;;;19.09;55.22;96909.97;10372635;28;20057;-22
2022/01/06 14:58:02;;;;;;;4.35;3.95;;;;;;;19.09;55.44;96910.81;10371096;28;20079;-22
2022/01/06 15:03:04;;;;;;;4.20;3.80;;;;;;;19.11;55.29;96908.28;10371210;28;20034;-22
2022/01/06 15:08:05;;;;;;;3.95;3.50;;;;;;;19.12;55.11;96913.38;10371589;28;20284;-22
2022/01/06 15:13:05;;;;;;;4.72;3.85;;;;;;;19.14;55.13;96910.81;10372848;28;20037;-22
2022/01/06 15:18:06;;;;;;;3.97;3.67;;;;;;;19.11;55.47;96914.22;10411987;28;20037;-23
2022/01/06 15:23:07;;;;;;;4.13;3.72;;;;;;;19.09;55.36;96915.06;10371375;28;20289;-22
2022/01/06 15:28:07;;;;;;;3.57;3.23;;;;;;;19.12;55.19;96920.13;10370724;28;20040;-21
2022/01/06 15:33:08;;;;;;;4.63;3.70;;;;;;;19.07;54.94;96917.56;10370820;28;20547;-22
2022/01/06 15:38:08;;;;;;;3.43;3.13;;;;;;;19.08;55.64;96928.59;10370187;28;20292;-22
2022/01/06 15:43:09;;;;;;;4.00;3.63;;;;;;;19.07;55.27;96934.47;10370154;28;20058;-23
2022/01/06 15:48:09;;;;;;;4.05;3.65;;;;;;;18.94;55.23;96909.97;10371128;28;20456;-21
2022/01/06 15:53:09;;;;;;;4.17;3.77;;;;;;;19.10;54.95;96926.91;10370009;28;20029;-22
2022/01/06 15:58:10;;;;;;;4.50;3.60;;;;;;;19.12;55.08;96937.88;10368831;28;20793;-21
2022/01/06 16:08:29;;;;;;;4.10;3.70;;;;;;;19.09;55.08;96936.19;10369644;28;20034;-22
2022/01/06 16:13:31;;;;;;;4.00;3.63;;;;;;;19.10;55.08;96947.19;10390631;28;20036;-22
2022/01/06 16:18:32;;;;;;;4.38;3.97;;;;;;;19.08;55.04;96948.88;10407686;28;20069;-22
2022/01/06 16:23:32;;;;;;;4.95;3.90;;;;;;;19.11;54.92;96949.75;10368896;28;20480;-22
2022/01/06 16:28:33;;;;;;;3.78;3.38;;;;;;;19.08;55.19;96949.72;10369322;28;20036;-22
2022/01/06 16:33:33;;;;;;;4.10;3.80;;;;;;;19.09;54.94;96958.19;10368950;28;20037;-22
2022/01/06 16:38:35;;;;;;;4.10;3.70;;;;;;;19.07;55.09;96962.41;10368929;28;20624;-23
2022/01/06 16:43:36;;;;;;;3.95;3.65;;;;;;;19.01;54.77;96947.19;10368103;28;20038;-22
2022/01/06 16:48:36;;;;;;;4.03;3.65;;;;;;;19.14;54.66;96966.63;10368064;28;20041;-22
2022/01/06 16:53:37;;;;;;;3.90;3.30;;;;;;;19.12;54.88;96981.88;10368068;28;20193;-22
2022/01/06 16:58:37;;;;;;;4.20;3.80;;;;;;;19.12;54.69;96986.97;10368650;28;20478;-22
2022/01/06 17:03:37;;;;;;;3.70;3.40;;;;;;;19.14;54.66;96981.88;10368001;28;20424;-22
2022/01/06 17:08:40;;;;;;;3.97;3.67;;;;;;;19.11;54.94;96984.41;10368204;28;20107;-22
2022/01/06 17:13:40;;;;;;;4.05;3.65;;;;;;;19.10;54.89;96988.63;10377048;28;20030;-22
2022/01/06 17:18:41;;;;;;;4.03;3.60;;;;;;;19.12;54.87;96991.19;10406281;28;20034;-21
2022/01/06 17:23:42;;;;;;;3.60;3.30;;;;;;;19.12;54.74;96991.19;10376772;28;20034;-23
2022/01/06 17:28:42;;;;;;;3.90;3.50;;;;;;;19.10;54.54;96993.72;10376468;28;20044;-23
2022/01/06 17:33:43;;;;;;;4.30;3.90;;;;;;;19.14;54.71;96997.09;10376094;28;20032;-23
2022/01/06 17:38:44;;;;;;;3.50;3.20;;;;;;;19.12;54.59;97002.19;10377397;28;20042;-22
2022/01/06 17:43:44;;;;;;;3.67;3.38;;;;;;;19.12;54.57;97003.88;10376098;28;20061;-22
2022/01/06 17:48:45;;;;;;;3.60;3.30;;;;;;;19.12;54.82;96998.78;10375753;28;20561;-23
2022/01/06 17:53:45;;;;;;;3.35;3.00;;;;;;;19.10;54.67;97000.50;10375462;28;20485;-23
2022/01/06 17:58:47;;;;;;;3.20;2.93;;;;;;;19.10;54.72;96997.94;10375951;28;20545;-22
2022/01/06 18:03:47;;;;;;;3.22;2.90;;;;;;;19.13;54.60;96992.88;10375579;28;20512;-23
2022/01/06 18:08:52;;;;;;;3.50;3.20;;;;;;;19.14;54.50;96995.41;10375550;28;20034;-22
2022/01/06 18:13:57;;;;;;;4.15;3.78;;;;;;;19.15;54.39;96984.41;10391378;28;20044;-22
2022/01/06 18:18:59;;;;;;;3.70;3.40;;;;;;;19.19;54.25;96992.94;10409065;28;20033;-22
2022/01/06 18:23:59;;;;;;;3.53;3.22;;;;;;;19.17;54.41;96997.13;10374217;28;20435;-22
2022/01/06 18:29:00;;;;;;;4.05;3.35;;;;;;;19.17;54.45;96999.66;10373961;28;20045;-22
2022/01/06 18:34:00;;;;;;;4.00;3.10;;;;;;;19.12;54.31;96988.63;10374355;28;20037;-22
2022/01/06 18:39:03;;;;;;;3.42;3.13;;;;;;;19.11;54.62;96999.63;10373952;28;20403;-23
2022/01/06 18:44:04;;;;;;;3.35;3.05;;;;;;;19.15;54.47;97011.47;10372978;28;20108;-22
2022/01/06 18:49:04;;;;;;;3.17;2.90;;;;;;;19.11;55.09;97008.13;10373174;28;20065;-22
2022/01/06 18:54:04;;;;;;;3.43;3.10;;;;;;;19.09;54.66;97003.88;10372750;28;20096;-22
2022/01/06 18:59:06;;;;;;;3.50;3.20;;;;;;;19.11;54.69;97005.56;10372993;28;20045;-21
2022/01/06 19:04:06;;;;;;;3.25;2.95;;;;;;;19.08;55.03;96995.41;10372672;28;20099;-22
2022/01/06 19:09:07;;;;;;;3.93;3.13;;;;;;;19.09;54.64;96993.72;10371970;28;20046;-22
2022/01/06 19:14:08;;;;;;;3.03;2.83;;;;;;;19.11;54.41;96985.28;10390648;28;20403;-23
2022/01/06 19:19:08;;;;;;;3.92;3.53;;;;;;;19.12;54.38;96991.19;10404286;28;20088;-22
2022/01/06 19:24:09;;;;;;;3.03;2.80;;;;;;;19.08;54.44;96992.88;10371742;28;20034;-21
2022/01/06 19:29:09;;;;;;;4.13;3.63;;;;;;;19.13;54.27;96993.72;10370988;28;20030;-22
2022/01/06 19:34:10;;;;;;;5.70;3.00;;;;;;;19.10;52.64;96982.72;10379203;28;20036;-21
2022/01/06 19:39:10;;;;;;;2.97;2.78;;;;;;;19.07;54.45;96992.84;10408621;28;20040;-22
2022/01/06 19:44:12;;;;;;;3.95;3.50;;;;;;;19.08;54.47;96981.88;10397663;28;20052;-25
2022/01/06 19:49:13;;;;;;;3.85;3.45;;;;;;;19.10;54.31;96987.81;10409236;28;20503;-22
2022/01/06 19:54:13;;;;;;;3.97;3.53;;;;;;;19.08;55.07;96986.97;10391768;28;20042;-22
2022/01/06 19:59:18;;;;;;;3.97;3.57;;;;;;;19.09;54.45;96981.03;10394932;28;20038;-23
2022/01/06 20:04:19;;;;;;;3.92;3.50;;;;;;;19.09;54.23;96986.94;10394604;28;20504;-22
2022/01/06 20:09:19;;;;;;;3.93;3.63;;;;;;;19.13;54.20;96988.66;10406068;28;20041;-22
2022/01/06 20:14:22;;;;;;;3.55;3.25;;;;;;;19.13;54.20;96987.78;10399848;28;20045;-22
2022/01/06 20:19:22;;;;;;;5.35;3.92;;;;;;;19.13;53.79;96993.72;10382459;28;20042;-22
2022/01/06 20:24:23;;;;;;;4.33;3.53;;;;;;;19.11;54.11;96999.63;10405834;28;20044;-23
2022/01/06 20:29:23;;;;;;;5.50;3.80;;;;;;;19.13;54.05;96987.78;10403785;28;20090;-22
2022/01/06 20:34:24;;;;;;;4.47;4.03;;;;;;;19.14;54.02;96979.34;10398604;28;20488;-22
2022/01/06 20:39:24;;;;;;;4.70;4.23;;;;;;;19.13;54.06;96987.78;10368540;28;20289;-23
2022/01/06 20:44:26;;;;;;;3.95;3.50;;;;;;;19.13;54.22;96985.25;10367686;28;20310;-23
2022/01/06 20:54:45;;;;;;;4.30;3.83;;;;;;;19.11;54.12;96984.41;10359244;28;20033;-22
2022/01/06 20:59:46;;;;;;;3.77;3.37;;;;;;;19.12;54.35;96984.44;10365323;28;20034;-24
2022/01/06 21:04:46;;;;;;;3.35;3.05;;;;;;;19.10;53.98;96970.03;10365455;28;20041;-23
2022/01/06 21:09:46;;;;;;;5.18;3.53;;;;;;;19.15;54.21;96986.97;10367482;28;20156;-23
2022/01/06 21:14:47;;;;;;;5.03;3.17;;;;;;;19.18;54.21;96991.19;10403045;28;20037;-23
2022/01/06 21:19:49;;;;;;;4.43;3.60;;;;;;;19.17;54.16;96995.41;10402936;28;20231;-23
2022/01/06 21:24:49;;;;;;;3.80;3.08;;;;;;;19.18;54.23;96986.94;10406479;28;20034;-22
2022/01/06 21:29:49;;;;;;;3.73;3.40;;;;;;;19.20;54.19;96989.53;10376888;28;20499;-22
2022/01/06 21:34:50;;;;;;;4.70;3.47;;;;;;;19.18;54.17;96983.59;10386006;28;20443;-22
2022/01/06 21:39:52;;;;;;;3.73;2.93;;;;;;;19.17;54.07;96985.25;10366002;28;20296;-23
2022/01/06 21:44:53;;;;;;;3.30;2.80;;;;;;;19.16;53.93;96980.19;10366301;28;20323;-22
2022/01/06 21:49:53;;;;;;;4.87;3.20;;;;;;;19.18;54.02;96970.91;10377409;28;20030;-22
2022/01/06 21:54:54;;;;;;;2.78;2.30;;;;;;;19.16;54.23;96957.38;10403848;28;20288;-22
2022/01/06 21:59:54;;;;;;;2.50;2.30;;;;;;;19.15;54.37;96955.63;10395235;28;20030;-23
2022/01/06 22:04:55;;;;;;;4.47;2.75;;;;;;;19.13;54.36;96942.09;10401539;28;20223;-22
2022/01/06 22:09:56;;;;;;;3.57;3.03;;;;;;;19.14;54.37;96948.88;10415076;28;20428;-22
2022/01/06 22:14:56;;;;;;;3.03;2.72;;;;;;;19.12;54.42;96950.56;10403519;28;20033;-22
2022/01/06 22:19:57;;;;;;;2.93;2.50;;;;;;;19.16;54.45;96962.44;10402042;28;20119;-22
2022/01/06 22:25:00;;;;;;;3.10;2.80;;;;;;;19.14;54.32;96979.34;10407027;28;20699;-22
2022/01/06 22:30:04;;;;;;;4.60;3.33;;;;;;;19.14;54.16;96992.03;10408097;28;20029;-22
2022/01/06 22:35:06;;;;;;;3.38;3.08;;;;;;;19.14;54.26;96992.88;10411377;28;20031;-22
2022/01/06 22:40:07;;;;;;;3.05;2.75;;;;;;;19.15;54.30;96996.25;10414029;28;20033;-22
2022/01/06 22:45:08;;;;;;;3.20;2.78;;;;;;;19.17;54.17;96992.06;10395017;28;20038;-23
2022/01/06 22:50:11;;;;;;;5.10;2.88;;;;;;;19.15;54.11;96993.72;10372403;28;20389;-22
2022/01/06 22:55:12;;;;;;;4.72;2.67;;;;;;;19.13;54.19;96987.78;10372003;28;20038;-22
2022/01/06 23:00:27;;;;;;;3.13;2.80;;;;;;;19.11;54.36;96974.25;10372364;28;20041;-23
2022/01/06 23:05:27;;;;;;;4.35;2.92;;;;;;;19.09;54.18;96974.25;10371912;28;20058;-23
2022/01/06 23:10:28;;;;;;;3.63;2.40;;;;;;;19.12;54.14;96981.03;10371867;28;20049;-22
2022/01/06 23:15:28;;;;;;;2.72;2.42;;;;;;;19.12;54.33;96981.03;10408697;28;20045;-22
2022/01/06 23:20:29;;;;;;;3.55;3.08;;;;;;;19.14;54.18;96982.72;10393547;28;20108;-22
2022/01/06 23:25:30;;;;;;;2.35;2.15;;;;;;;19.16;53.94;96978.50;10370718;28;20045;-22
2022/01/06 23:30:30;;;;;;;2.77;2.57;;;;;;;19.16;53.94;96977.66;10370746;28;20037;-23
2022/01/06 23:35:30;;;;;;;2.33;2.13;;;;;;;19.17;53.88;96984.44;10370669;28;20405;-22
2022/01/06 23:40:31;;;;;;;3.00;2.70;;;;;;;19.10;54.06;96975.13;10370899;28;20516;-22
2022/01/06 23:45:32;;;;;;;2.78;2.47;;;;;;;19.08;53.81;96951.44;10369701;28;20404;-22